Time;durP1;ratioP1;P1;durP2;ratioP2;P2;SDS_P1;SDS_P2;PMS_P1;PMS_P2;Temp;Humidity;BMP_temperature;BMP_pressure;BME280_temperature;BME280_humidity;BME280_pressure;Samples;Min_cycle;Max_cycle;Signal;HPM_P1;HPM_P2
2021/07/31 00:02:00;;;;;;;9.20;6.18;;;22.30;70.30;;;;;;5002381;28;20036;-65
2021/07/31 00:04:44;;;;;;;8.07;5.83;;;22.30;70.10;;;;;;5010777;28;20075;-66
2021/07/31 00:07:29;;;;;;;;;;;22.30;70.60;;;;;;5002240;28;20304;-65
2021/07/31 00:10:13;;;;;;;6.70;5.63;;;22.20;69.60;;;;;;5010659;28;19948;-66
2021/07/31 00:12:57;;;;;;;8.88;5.63;;;22.20;70.70;;;;;;4991857;28;20557;-66
2021/07/31 00:15:42;;;;;;;10.70;5.25;;;22.20;71.00;;;;;;5002914;28;21858;-66
2021/07/31 00:18:26;;;;;;;8.60;5.03;;;22.20;71.30;;;;;;5010721;28;20173;-66
2021/07/31 00:21:10;;;;;;;8.63;4.73;;;22.20;71.40;;;;;;5009384;28;20057;-66
2021/07/31 00:23:54;;;;;;;7.35;4.97;;;22.10;71.30;;;;;;5010519;28;20053;-66
2021/07/31 00:26:38;;;;;;;7.67;4.70;;;22.10;71.80;;;;;;5009772;28;20069;-66
2021/07/31 00:29:22;;;;;;;5.97;3.90;;;22.10;71.40;;;;;;5010946;28;20418;-66
2021/07/31 00:32:07;;;;;;;7.93;4.50;;;22.10;71.20;;;;;;5009970;28;20045;-66
2021/07/31 00:34:51;;;;;;;7.47;4.38;;;22.10;71.40;;;;;;5009603;28;20517;-66
2021/07/31 00:37:35;;;;;;;7.10;4.25;;;22.10;71.50;;;;;;5010004;28;20045;-66
2021/07/31 00:40:19;;;;;;;7.18;4.10;;;22.10;71.50;;;;;;5010732;28;20045;-66
2021/07/31 00:43:08;;;;;;;5.53;4.43;;;22.00;71.40;;;;;;4991804;28;20117;-66
2021/07/31 00:45:52;;;;;;;5.07;4.03;;;22.00;71.40;;;;;;5006352;28;20520;-66
2021/07/31 00:48:36;;;;;;;12.27;4.15;;;22.00;71.40;;;;;;5009024;28;20057;-66
2021/07/31 00:51:20;;;;;;;8.82;4.43;;;21.90;71.40;;;;;;5008261;28;20111;-66
2021/07/31 00:54:06;;;;;;;6.03;4.38;;;21.90;71.60;;;;;;5010167;28;20494;-66
2021/07/31 00:56:52;;;;;;;7.55;4.20;;;21.90;71.80;;;;;;5007562;28;20406;-66
2021/07/31 00:59:38;;;;;;;8.68;4.18;;;21.90;71.90;;;;;;5010131;28;20026;-66
2021/07/31 01:02:25;;;;;;;11.38;4.50;;;21.80;71.90;;;;;;5007715;28;20062;-66
2021/07/31 01:05:11;;;;;;;8.82;5.43;;;21.80;71.80;;;;;;5013960;28;20042;-65
2021/07/31 01:07:57;;;;;;;6.97;4.55;;;21.70;71.90;;;;;;5012915;28;20033;-65
2021/07/31 01:10:43;;;;;;;7.32;4.13;;;21.80;72.20;;;;;;5012529;28;20026;-65
2021/07/31 01:13:30;;;;;;;7.00;4.80;;;21.70;72.30;;;;;;5013997;28;20026;-65
2021/07/31 01:16:16;;;;;;;4.95;3.47;;;21.70;72.40;;;;;;4997811;28;20144;-65
2021/07/31 01:19:02;;;;;;;5.72;3.40;;;21.70;72.40;;;;;;5014651;28;20114;-65
2021/07/31 01:21:48;;;;;;;4.30;3.38;;;21.70;72.30;;;;;;5004108;28;20034;-66
2021/07/31 01:24:34;;;;;;;8.52;3.85;;;21.70;72.30;;;;;;5014358;28;20026;-65
2021/07/31 01:27:20;;;;;;;5.28;3.78;;;21.70;72.50;;;;;;5011150;28;20065;-65
2021/07/31 01:30:06;;;;;;;5.28;3.83;;;21.70;72.50;;;;;;5011795;28;20267;-66
2021/07/31 01:32:53;;;;;;;5.18;3.83;;;21.70;72.60;;;;;;5013576;28;20117;-66
2021/07/31 01:35:38;;;;;;;5.60;3.90;;;21.60;72.50;;;;;;5012933;28;20050;-66
2021/07/31 01:38:24;;;;;;;6.82;4.07;;;21.70;72.60;;;;;;5010481;28;20037;-65
2021/07/31 01:41:10;;;;;;;6.65;3.70;;;21.70;72.70;;;;;;5010993;28;20405;-65
2021/07/31 01:43:56;;;;;;;9.00;4.05;;;21.70;72.90;;;;;;4993304;28;20105;-65
2021/07/31 01:46:42;;;;;;;5.93;3.20;;;21.60;72.70;;;;;;4996978;28;20056;-66
2021/07/31 01:49:28;;;;;;;9.35;4.32;;;21.60;72.80;;;;;;5012745;28;20050;-66
2021/07/31 01:52:14;;;;;;;4.60;4.05;;;21.70;73.00;;;;;;5004507;28;20092;-65
2021/07/31 01:55:00;;;;;;;8.93;3.70;;;21.80;72.90;;;;;;5000316;28;20029;-65
2021/07/31 01:57:45;;;;;;;6.90;3.92;;;21.80;73.00;;;;;;5011976;28;20506;-65
2021/07/31 02:00:31;;;;;;;4.28;3.45;;;21.80;73.60;;;;;;5010148;28;20052;-65
2021/07/31 02:03:17;;;;;;;6.10;3.72;;;21.80;72.90;;;;;;5010111;28;20049;-65
2021/07/31 02:06:03;;;;;;;4.47;3.63;;;21.90;73.00;;;;;;4998976;28;20026;-66
2021/07/31 02:08:49;;;;;;;6.60;3.55;;;21.80;73.00;;;;;;5009042;28;20088;-66
2021/07/31 02:11:35;;;;;;;5.07;3.45;;;21.80;72.90;;;;;;5010068;28;20026;-66
2021/07/31 02:14:21;;;;;;;5.68;3.97;;;21.90;72.90;;;;;;5012076;28;20026;-66
2021/07/31 02:17:07;;;;;;;5.03;3.45;;;21.90;72.90;;;;;;5011026;28;20034;-66
2021/07/31 02:19:52;;;;;;;5.72;3.35;;;21.90;72.80;;;;;;4997992;28;20064;-66
2021/07/31 02:22:38;;;;;;;5.28;3.45;;;21.90;72.70;;;;;;5009370;28;20050;-66
2021/07/31 02:25:24;;;;;;;7.68;3.40;;;21.90;72.60;;;;;;5012861;28;20041;-66
2021/07/31 02:28:12;;;;;;;9.63;3.42;;;21.90;72.50;;;;;;5008745;28;20026;-66
2021/07/31 02:30:58;;;;;;;4.28;3.20;;;21.90;72.50;;;;;;5010227;28;20030;-66
2021/07/31 02:33:43;;;;;;;5.93;3.55;;;21.90;72.40;;;;;;5005980;28;20030;-66
2021/07/31 02:36:29;;;;;;;4.22;3.22;;;21.90;72.40;;;;;;5002894;28;20081;-66
2021/07/31 02:39:15;;;;;;;7.00;3.17;;;21.90;73.00;;;;;;5011284;28;20064;-66
2021/07/31 02:42:01;;;;;;;5.13;3.15;;;21.90;72.40;;;;;;5011151;28;20037;-65
2021/07/31 02:44:47;;;;;;;6.22;3.45;;;22.00;72.50;;;;;;5012874;28;20125;-65
2021/07/31 02:47:30;;;;;;;9.52;3.35;;;22.00;72.50;;;;;;5004866;28;20065;-65
2021/07/31 02:50:15;;;;;;;4.78;3.17;;;22.00;72.50;;;;;;4992442;28;20133;-66
2021/07/31 02:52:58;;;;;;;4.45;3.22;;;22.00;72.50;;;;;;4991526;28;20482;-65
2021/07/31 02:55:47;;;;;;;4.32;2.88;;;22.00;72.30;;;;;;4992571;28;20455;-65
2021/07/31 02:58:32;;;;;;;3.95;2.90;;;22.00;72.20;;;;;;4991121;28;20092;-65
2021/07/31 03:01:17;;;;;;;4.53;2.78;;;22.00;72.00;;;;;;4990595;28;20069;-65
2021/07/31 03:04:01;;;;;;;5.85;2.70;;;21.90;71.80;;;;;;4984391;28;20097;-65
2021/07/31 03:06:45;;;;;;;4.75;3.03;;;22.00;71.30;;;;;;4991901;28;20044;-65
2021/07/31 03:09:29;;;;;;;4.97;2.38;;;22.00;71.30;;;;;;4991386;28;20092;-65
2021/07/31 03:12:14;;;;;;;3.50;2.60;;;22.00;71.10;;;;;;4992471;28;20120;-66
2021/07/31 03:14:59;;;;;;;3.47;2.78;;;22.00;70.90;;;;;;4992259;28;20041;-66
2021/07/31 03:17:43;;;;;;;4.57;2.47;;;22.00;70.80;;;;;;4982666;28;20080;-66
2021/07/31 03:20:27;;;;;;;4.88;2.80;;;22.00;71.10;;;;;;4977139;28;20198;-66
2021/07/31 03:23:11;;;;;;;7.10;2.80;;;22.10;70.50;;;;;;4990664;28;20073;-66
2021/07/31 03:26:00;;;;;;;6.75;2.85;;;22.10;70.30;;;;;;4991548;28;20077;-65
2021/07/31 03:28:44;;;;;;;4.90;2.92;;;22.10;70.20;;;;;;4990594;28;20081;-66
2021/07/31 03:31:28;;;;;;;4.45;2.38;;;22.10;70.10;;;;;;4990520;28;20033;-65
2021/07/31 03:34:14;;;;;;;4.47;2.63;;;22.20;70.10;;;;;;4991492;28;20119;-65
2021/07/31 03:36:58;;;;;;;4.85;2.35;;;22.10;70.00;;;;;;4991548;28;20115;-65
2021/07/31 03:39:42;;;;;;;3.88;2.35;;;22.10;69.90;;;;;;4983201;28;20471;-65
2021/07/31 03:42:26;;;;;;;5.77;2.60;;;22.10;69.90;;;;;;4982848;28;20053;-65
2021/07/31 03:45:10;;;;;;;5.95;2.60;;;22.10;69.90;;;;;;4973101;28;20534;-71
2021/07/31 03:47:55;;;;;;;;;;;22.20;69.90;;;;;;4988565;28;20155;-70
2021/07/31 03:50:40;;;;;;;3.67;2.40;;;22.10;69.70;;;;;;4995777;28;20701;-70
2021/07/31 03:53:24;;;;;;;4.35;2.10;;;22.10;69.90;;;;;;5010394;28;20540;-70
2021/07/31 03:56:09;;;;;;;3.67;2.22;;;22.10;70.00;;;;;;5009936;28;20397;-70
2021/07/31 03:58:53;;;;;;;3.40;2.38;;;22.10;70.60;;;;;;5008532;28;20501;-70
2021/07/31 04:01:38;;;;;;;5.60;2.42;;;22.10;70.00;;;;;;5007583;28;20028;-72
2021/07/31 04:04:21;;;;;;;6.77;2.70;;;22.00;69.90;;;;;;5011501;28;20450;-73
2021/07/31 04:07:05;;;;;;;4.53;2.10;;;22.00;69.90;;;;;;5009520;28;20060;-72
2021/07/31 04:09:49;;;;;;;3.30;1.92;;;22.00;69.90;;;;;;5010926;28;20173;-73
2021/07/31 04:12:34;;;;;;;3.20;2.05;;;22.00;70.10;;;;;;5009084;28;20145;-72
2021/07/31 04:15:18;;;;;;;3.77;2.20;;;21.90;70.10;;;;;;5011777;28;20385;-72
2021/07/31 04:18:02;;;;;;;4.22;2.53;;;21.90;69.90;;;;;;5008080;28;20299;-72
2021/07/31 04:20:46;;;;;;;2.90;2.20;;;21.90;70.00;;;;;;5010204;28;20076;-72
2021/07/31 04:23:30;;;;;;;3.47;2.13;;;21.90;70.10;;;;;;5009016;28;20051;-72
2021/07/31 04:26:16;;;;;;;3.45;2.10;;;21.90;70.10;;;;;;5010764;28;20343;-71
2021/07/31 04:29:00;;;;;;;5.63;1.98;;;21.90;70.20;;;;;;5008132;28;20091;-71
2021/07/31 04:31:45;;;;;;;3.20;2.23;;;21.90;70.20;;;;;;5008832;28;20180;-72
2021/07/31 04:34:29;;;;;;;2.72;1.90;;;21.90;70.20;;;;;;5011204;28;20267;-71
2021/07/31 04:37:13;;;;;;;4.15;1.90;;;21.90;70.20;;;;;;5010166;28;20069;-72
2021/07/31 04:39:57;;;;;;;2.92;1.80;;;21.90;70.30;;;;;;5014695;28;20544;-72
2021/07/31 04:42:42;;;;;;;3.00;2.00;;;21.80;70.20;;;;;;5012091;28;20148;-71
2021/07/31 04:45:26;;;;;;;4.72;1.90;;;21.90;70.30;;;;;;5014514;28;20926;-71
2021/07/31 04:48:10;;;;;;;3.80;2.20;;;21.90;70.40;;;;;;5010687;28;20133;-72
2021/07/31 04:50:59;;;;;;;4.55;2.10;;;21.90;70.40;;;;;;5013921;28;20033;-71
2021/07/31 04:53:45;;;;;;;2.97;1.88;;;21.90;70.60;;;;;;5013742;28;20461;-72
2021/07/31 04:56:31;;;;;;;8.18;2.60;;;21.90;70.60;;;;;;5012047;28;20102;-71
2021/07/31 04:59:17;;;;;;;3.45;2.45;;;21.90;70.60;;;;;;5014554;28;20037;-72
2021/07/31 05:02:03;;;;;;;4.15;2.38;;;21.90;70.40;;;;;;5012384;28;20089;-72
2021/07/31 05:04:49;;;;;;;2.08;1.50;;;21.90;70.40;;;;;;5012875;28;20041;-70
2021/07/31 05:07:35;;;;;;;2.83;1.77;;;21.90;70.10;;;;;;5013836;28;20041;-70
2021/07/31 05:10:20;;;;;;;3.60;1.80;;;21.90;70.00;;;;;;5012602;28;20022;-70
2021/07/31 05:13:06;;;;;;;5.90;3.28;;;21.90;70.00;;;;;;5010071;28;20034;-70
2021/07/31 05:15:52;;;;;;;3.95;1.70;;;21.90;70.20;;;;;;5012768;28;20029;-70
2021/07/31 05:18:38;;;;;;;2.65;1.67;;;21.90;70.00;;;;;;5013810;28;20034;-69
2021/07/31 05:21:24;;;;;;;2.28;1.45;;;21.90;69.90;;;;;;4996723;28;20407;-70
2021/07/31 05:24:10;;;;;;;4.25;1.48;;;22.00;69.70;;;;;;5012783;28;20034;-69
2021/07/31 05:26:56;;;;;;;3.03;1.75;;;22.10;69.50;;;;;;4996830;28;20117;-69
2021/07/31 05:29:41;;;;;;;2.20;1.60;;;22.10;69.30;;;;;;5012079;28;20494;-70
2021/07/31 05:32:27;;;;;;;2.00;1.50;;;22.20;69.30;;;;;;5005702;28;20033;-69
2021/07/31 05:35:13;;;;;;;5.78;1.98;;;22.20;68.80;;;;;;5011623;28;20026;-69
2021/07/31 05:38:00;;;;;;;2.47;1.70;;;22.20;68.70;;;;;;4998242;28;20030;-69
2021/07/31 05:40:46;;;;;;;3.92;1.65;;;22.30;68.80;;;;;;5013723;28;20026;-70
2021/07/31 05:43:32;;;;;;;3.05;1.40;;;22.30;68.60;;;;;;5014012;28;20084;-71
2021/07/31 05:46:18;;;;;;;3.72;1.40;;;22.30;68.40;;;;;;5012898;28;20080;-70
2021/07/31 05:49:04;;;;;;;1.92;1.30;;;22.30;68.40;;;;;;4992267;28;20050;-69
2021/07/31 05:51:50;;;;;;;3.35;1.55;;;22.30;68.50;;;;;;5011112;28;20097;-71
2021/07/31 05:54:36;;;;;;;2.92;1.33;;;22.30;68.40;;;;;;5011738;28;20048;-69
2021/07/31 05:57:22;;;;;;;1.85;1.38;;;22.30;68.30;;;;;;5001299;28;20022;-69
2021/07/31 06:00:08;;;;;;;2.67;1.50;;;22.30;68.10;;;;;;5012607;28;20041;-68
2021/07/31 06:02:54;;;;;;;3.72;1.40;;;22.30;68.10;;;;;;5011164;28;20496;-71
2021/07/31 06:05:40;;;;;;;2.38;1.45;;;22.30;67.90;;;;;;5012549;28;20031;-72
2021/07/31 06:08:26;;;;;;;3.50;1.67;;;22.30;67.70;;;;;;4996250;28;20026;-71
2021/07/31 06:11:12;;;;;;;4.55;1.58;;;22.30;67.30;;;;;;5012238;28;20037;-70
2021/07/31 06:13:58;;;;;;;3.55;1.40;;;22.30;67.00;;;;;;4993376;28;20061;-71
2021/07/31 06:16:43;;;;;;;3.22;1.40;;;22.30;66.70;;;;;;5008528;28;20037;-71
2021/07/31 06:19:30;;;;;;;1.70;1.10;;;22.20;66.50;;;;;;5014746;28;20036;-71
2021/07/31 06:22:16;;;;;;;3.78;1.50;;;22.30;66.70;;;;;;5003189;28;20598;-72
2021/07/31 06:25:02;;;;;;;3.42;1.40;;;22.30;66.40;;;;;;5002837;28;20092;-72
2021/07/31 06:27:48;;;;;;;5.07;1.33;;;22.30;65.90;;;;;;5002776;28;20026;-72
2021/07/31 06:30:33;;;;;;;3.35;1.33;;;22.40;66.00;;;;;;5012017;28;20069;-71
2021/07/31 06:33:19;;;;;;;3.35;1.20;;;22.40;65.90;;;;;;5008781;28;20037;-72
2021/07/31 06:36:05;;;;;;;1.92;1.17;;;22.40;65.90;;;;;;5012239;28;20153;-72
2021/07/31 06:38:51;;;;;;;2.88;1.35;;;22.50;65.90;;;;;;5003215;28;20080;-72
2021/07/31 06:41:37;;;;;;;3.97;1.30;;;22.50;65.50;;;;;;5002114;28;20182;-72
2021/07/31 06:44:23;;;;;;;2.38;1.27;;;22.60;65.10;;;;;;5003945;28;20042;-71
2021/07/31 06:47:09;;;;;;;3.45;1.27;;;22.60;64.80;;;;;;4997567;28;20027;-71
2021/07/31 06:49:53;;;;;;;3.60;1.20;;;22.60;64.20;;;;;;5001294;28;20068;-71
2021/07/31 06:52:37;;;;;;;1.97;1.00;;;22.60;63.70;;;;;;4992532;28;20064;-70
2021/07/31 06:55:21;;;;;;;3.47;1.20;;;22.60;63.60;;;;;;5006843;28;20092;-71
2021/07/31 06:58:05;;;;;;;2.20;1.10;;;22.60;63.50;;;;;;4995161;28;20171;-72
2021/07/31 07:00:49;;;;;;;3.38;1.10;;;22.60;63.70;;;;;;4996198;28;20068;-71
2021/07/31 07:03:33;;;;;;;2.45;1.02;;;22.70;63.60;;;;;;5000315;28;20690;-70
2021/07/31 07:06:17;;;;;;;1.98;1.15;;;22.70;63.20;;;;;;5001261;28;20489;-70
2021/07/31 07:09:02;;;;;;;3.28;1.23;;;22.70;63.10;;;;;;5002104;28;20052;-70
2021/07/31 07:11:46;;;;;;;1.92;1.35;;;22.70;63.20;;;;;;5001026;28;20036;-71
2021/07/31 07:14:30;;;;;;;2.10;1.20;;;22.80;63.20;;;;;;5000760;28;20165;-70
2021/07/31 07:17:14;;;;;;;2.28;1.10;;;22.80;63.10;;;;;;5001546;28;20064;-70
2021/07/31 07:19:58;;;;;;;2.53;1.20;;;22.80;63.20;;;;;;5008135;28;20080;-69
2021/07/31 07:22:42;;;;;;;1.90;1.20;;;22.80;62.90;;;;;;5009398;28;20073;-71
2021/07/31 07:25:26;;;;;;;2.80;1.13;;;22.90;63.00;;;;;;5010609;28;20453;-70
2021/07/31 07:28:11;;;;;;;2.45;1.20;;;22.90;62.40;;;;;;5005303;28;20320;-70
2021/07/31 07:30:56;;;;;;;2.17;1.52;;;23.00;62.30;;;;;;5002393;28;20048;-73
2021/07/31 07:33:41;;;;;;;8.48;1.23;;;23.00;61.90;;;;;;4999542;28;20036;-73
2021/07/31 07:36:25;;;;;;;3.58;1.40;;;23.00;61.30;;;;;;4996834;28;20040;-71
2021/07/31 07:39:09;;;;;;;2.70;1.20;;;23.00;61.50;;;;;;5001378;28;20430;-71
2021/07/31 07:41:54;;;;;;;3.28;1.30;;;23.00;61.40;;;;;;5000113;28;20121;-71
2021/07/31 07:44:38;;;;;;;3.50;1.30;;;23.10;61.40;;;;;;5001381;28;20883;-71
2021/07/31 07:47:22;;;;;;;2.30;1.30;;;23.10;61.60;;;;;;5000142;28;20141;-71
2021/07/31 07:50:07;;;;;;;4.30;1.50;;;23.10;61.70;;;;;;5007275;28;20073;-71
2021/07/31 07:52:51;;;;;;;3.63;1.60;;;23.20;61.80;;;;;;4998070;28;20040;-71
2021/07/31 07:55:35;;;;;;;2.47;1.47;;;23.30;61.50;;;;;;5001885;28;20064;-70
2021/07/31 07:58:19;;;;;;;5.32;1.63;;;23.30;61.40;;;;;;5007784;28;20323;-71
2021/07/31 08:01:08;;;;;;;2.97;1.27;;;23.40;61.20;;;;;;5005566;28;20037;-72
2021/07/31 08:03:52;;;;;;;3.08;1.35;;;23.40;60.70;;;;;;5000687;28;20048;-72
2021/07/31 08:06:37;;;;;;;5.72;2.05;;;23.50;60.50;;;;;;5007677;28;20501;-72
2021/07/31 08:09:22;;;;;;;3.83;1.33;;;23.60;60.00;;;;;;5007466;28;20064;-72
2021/07/31 08:12:07;;;;;;;2.80;1.05;;;23.60;59.50;;;;;;5004918;28;20093;-72
2021/07/31 08:14:52;;;;;;;4.32;1.40;;;23.70;59.10;;;;;;5004383;28;20037;-71
2021/07/31 08:17:37;;;;;;;3.50;1.60;;;23.80;59.10;;;;;;5007578;28;20040;-72
2021/07/31 08:20:22;;;;;;;;;;;23.90;58.70;;;;;;5007564;28;20563;-72
2021/07/31 08:23:06;;;;;;;3.67;1.30;;;23.90;58.10;;;;;;5004818;28;19968;-72
2021/07/31 08:25:50;;;;;;;2.20;1.30;;;23.90;58.20;;;;;;5000900;28;20437;-72
2021/07/31 08:28:34;;;;;;;1.63;1.02;;;24.00;57.80;;;;;;5006062;28;20045;-72
2021/07/31 08:31:18;;;;;;;3.22;1.30;;;24.10;57.20;;;;;;5000068;28;20494;-72
2021/07/31 08:34:02;;;;;;;2.38;1.30;;;24.10;56.70;;;;;;5001289;28;20582;-72
2021/07/31 08:36:46;;;;;;;2.65;1.00;;;24.20;56.50;;;;;;5001889;28;20410;-72
2021/07/31 08:39:30;;;;;;;2.92;2.10;;;24.20;56.30;;;;;;5007754;28;20446;-74
2021/07/31 08:42:14;;;;;;;2.65;1.50;;;24.30;56.30;;;;;;5001043;28;20069;-74
2021/07/31 08:44:58;;;;;;;1.90;1.23;;;24.30;56.10;;;;;;5009450;28;20036;-74
2021/07/31 08:47:45;;;;;;;3.97;1.98;;;24.30;56.40;;;;;;4990457;28;20056;-74
2021/07/31 08:50:31;;;;;;;1.67;1.20;;;24.30;55.80;;;;;;5001846;28;20099;-73
2021/07/31 08:53:15;;;;;;;1.90;1.45;;;24.40;55.40;;;;;;4992997;28;20469;-73
2021/07/31 08:56:01;;;;;;;3.30;1.52;;;24.40;55.90;;;;;;5004630;28;20469;-73
2021/07/31 08:58:47;;;;;;;3.13;1.70;;;24.50;55.40;;;;;;5007748;28;20117;-73
2021/07/31 09:01:33;;;;;;;1.90;1.30;;;24.50;54.90;;;;;;5000820;28;20064;-73
2021/07/31 09:04:20;;;;;;;4.00;1.65;;;24.60;55.40;;;;;;5008399;28;20038;-73
2021/07/31 09:07:13;;;;;;;2.80;1.38;;;24.70;54.90;;;;;;5005582;28;20018;-72
2021/07/31 09:10:24;;;;;;;3.92;1.83;;;24.80;54.90;;;;;;5004908;28;20567;-72
2021/07/31 09:13:16;;;;;;;2.70;1.40;;;24.90;55.50;;;;;;4990986;28;20112;-73
2021/07/31 09:16:07;;;;;;;3.33;1.50;;;25.00;54.60;;;;;;5006865;28;20057;-73
2021/07/31 09:19:03;;;;;;;3.75;1.40;;;25.10;55.10;;;;;;5003518;28;20018;-72
2021/07/31 09:21:50;;;;;;;17.10;2.78;;;25.20;55.30;;;;;;4997069;28;20023;-72
2021/07/31 09:24:36;;;;;;;4.47;1.85;;;25.20;55.40;;;;;;5008655;28;20528;-72
2021/07/31 09:27:25;;;;;;;3.58;1.95;;;25.30;55.00;;;;;;5009285;28;20032;-72
2021/07/31 09:30:11;;;;;;;3.33;1.63;;;25.30;54.20;;;;;;5010289;28;20096;-71
2021/07/31 09:33:02;;;;;;;2.70;1.48;;;25.40;54.20;;;;;;5006412;28;20080;-71
2021/07/31 09:35:59;;;;;;;2.30;1.48;;;25.50;53.70;;;;;;5010993;28;20080;-71
2021/07/31 09:38:48;;;;;;;5.15;1.73;;;25.50;54.10;;;;;;5012609;28;20038;-74
2021/07/31 09:41:38;;;;;;;5.68;1.50;;;25.60;54.50;;;;;;5008074;28;20038;-74
2021/07/31 09:44:24;;;;;;;3.45;2.15;;;25.60;54.10;;;;;;4994879;28;20038;-74
2021/07/31 09:47:10;;;;;;;4.07;1.70;;;25.70;53.20;;;;;;5010928;28;20026;-75
2021/07/31 09:50:00;;;;;;;3.45;1.80;;;25.70;52.30;;;;;;5005832;28;20037;-75
2021/07/31 09:52:46;;;;;;;4.40;1.60;;;25.70;51.90;;;;;;5004694;28;20076;-74
2021/07/31 09:55:33;;;;;;;3.88;1.58;;;25.70;51.80;;;;;;5005289;28;20374;-76
2021/07/31 09:58:21;;;;;;;5.07;1.40;;;25.70;51.60;;;;;;5008939;28;20041;-74
2021/07/31 10:01:06;;;;;;;4.55;1.83;;;25.80;52.50;;;;;;5005560;28;20021;-71
2021/07/31 10:03:53;;;;;;;3.15;1.40;;;25.80;52.30;;;;;;5009244;28;20034;-72
2021/07/31 10:06:40;;;;;;;5.05;1.40;;;25.80;52.20;;;;;;5001401;28;20033;-71
2021/07/31 10:09:26;;;;;;;3.47;1.40;;;25.90;51.50;;;;;;5010031;28;20030;-71
2021/07/31 10:12:14;;;;;;;2.78;1.40;;;25.90;51.70;;;;;;5006423;28;20057;-71
2021/07/31 10:15:00;;;;;;;5.13;1.58;;;25.90;51.80;;;;;;5007792;28;20056;-70
2021/07/31 10:17:46;;;;;;;3.70;1.42;;;25.90;51.80;;;;;;5008137;28;20062;-70
2021/07/31 10:20:32;;;;;;;3.35;1.30;;;25.90;52.00;;;;;;5009599;28;20026;-70
2021/07/31 10:23:55;;;;;;;3.13;1.20;;;25.90;51.60;;;;;;5006155;28;20793;-70
2021/07/31 10:27:16;;;;;;;2.47;1.20;;;26.00;51.60;;;;;;5005499;28;20433;-72
2021/07/31 10:30:04;;;;;;;4.65;1.15;;;26.00;51.10;;;;;;5010100;28;20037;-70
2021/07/31 10:32:50;;;;;;;5.35;1.30;;;26.00;51.20;;;;;;5004724;28;20556;-71
2021/07/31 10:35:37;;;;;;;3.17;1.38;;;26.10;51.70;;;;;;5010630;28;20029;-70
2021/07/31 10:38:33;;;;;;;1.83;1.00;;;26.10;52.10;;;;;;5005976;28;20064;-71
2021/07/31 10:41:56;;;;;;;2.17;1.08;;;26.10;51.80;;;;;;5008715;28;20034;-71
2021/07/31 10:45:23;;;;;;;2.42;1.30;;;26.20;51.10;;;;;;5006174;28;20038;-70
2021/07/31 10:48:26;;;;;;;3.78;1.40;;;26.20;50.50;;;;;;4992061;28;20015;-70
2021/07/31 10:50:52;;;;;;;5.38;1.30;;;26.10;50.80;;;;;;5010288;28;20045;-70
2021/07/31 10:53:19;;;;;;;4.88;1.55;;;26.10;51.40;;;;;;4988069;28;20072;-70
2021/07/31 10:55:45;;;;;;;2.33;1.10;;;26.10;51.60;;;;;;5008989;28;20160;-71
2021/07/31 10:58:15;;;;;;;5.65;1.30;;;26.10;51.30;;;;;;5009545;28;20109;-70
2021/07/31 11:00:44;;;;;;;3.53;1.55;;;26.10;51.40;;;;;;5010712;28;20037;-71
2021/07/31 11:03:15;;;;;;;2.50;1.20;;;26.10;50.80;;;;;;5006798;28;20162;-71
2021/07/31 11:06:00;;;;;;;4.22;1.50;;;26.10;50.50;;;;;;4999492;28;20030;-71
2021/07/31 11:08:44;;;;;;;3.25;1.45;;;26.10;50.80;;;;;;5007962;28;20042;-71
2021/07/31 11:11:13;;;;;;;5.65;1.70;;;26.00;50.70;;;;;;4992038;28;20058;-71
2021/07/31 11:13:39;;;;;;;3.90;1.30;;;26.00;51.10;;;;;;5003155;28;20077;-71
2021/07/31 11:16:09;;;;;;;4.40;1.13;;;26.00;50.90;;;;;;5006845;28;20030;-72
2021/07/31 11:18:42;;;;;;;1.70;1.20;;;26.00;50.40;;;;;;5008558;28;20034;-72
2021/07/31 11:21:10;;;;;;;5.15;1.27;;;26.10;50.80;;;;;;5011562;28;20109;-71
2021/07/31 11:23:50;;;;;;;1.45;1.08;;;26.10;50.60;;;;;;5002677;28;20096;-72
2021/07/31 11:26:38;;;;;;;3.45;1.40;;;26.10;50.10;;;;;;4994923;28;20402;-72
2021/07/31 11:29:24;;;;;;;2.28;1.35;;;26.10;50.00;;;;;;4996878;28;20115;-72
2021/07/31 11:32:14;;;;;;;5.03;1.65;;;26.20;50.50;;;;;;5010680;28;20505;-72
2021/07/31 11:34:58;;;;;;;3.58;1.20;;;26.30;50.40;;;;;;5010024;28;20025;-72
2021/07/31 11:37:42;;;;;;;2.05;1.30;;;26.30;51.20;;;;;;5010518;28;20556;-73
2021/07/31 11:40:27;;;;;;;6.75;1.95;;;26.40;50.50;;;;;;5002118;28;20068;-71
2021/07/31 11:42:56;;;;;;;3.80;1.10;;;26.40;50.80;;;;;;5003298;28;20466;-71
2021/07/31 11:45:23;;;;;;;4.93;2.22;;;26.40;50.80;;;;;;5006451;28;20492;-72
2021/07/31 11:47:55;;;;;;;2.72;1.10;;;26.40;50.40;;;;;;5007506;28;20421;-71
2021/07/31 11:51:00;;;;;;;1.98;1.00;;;26.40;50.30;;;;;;5003759;28;20052;-72
2021/07/31 11:53:44;;;;;;;3.45;1.45;;;26.40;50.80;;;;;;5008201;28;20544;-73
2021/07/31 11:56:28;;;;;;;3.53;1.73;;;26.40;50.40;;;;;;5006584;28;20033;-73
2021/07/31 11:59:21;;;;;;;3.30;1.50;;;26.50;50.80;;;;;;5006108;28;20488;-73
2021/07/31 12:02:06;;;;;;;2.58;1.30;;;26.50;50.30;;;;;;5003317;28;20065;-72
2021/07/31 12:04:43;;;;;;;4.05;1.40;;;26.50;50.00;;;;;;5009136;28;20545;-72
2021/07/31 12:07:13;;;;;;;3.08;1.25;;;26.60;50.90;;;;;;5005866;28;20504;-72
2021/07/31 12:09:40;;;;;;;2.05;1.00;;;26.60;50.60;;;;;;5008517;28;20069;-73
2021/07/31 12:12:22;;;;;;;1.85;1.17;;;26.60;50.40;;;;;;5006474;28;20022;-73
2021/07/31 12:15:13;;;;;;;1.20;0.75;;;26.70;50.20;;;;;;5008219;28;20026;-73
2021/07/31 12:17:42;;;;;;;3.53;1.30;;;26.70;49.70;;;;;;5000135;28;20026;-72
2021/07/31 12:20:08;;;;;;;3.20;1.02;;;26.70;49.20;;;;;;5005355;28;20025;-76
2021/07/31 12:22:35;;;;;;;2.55;1.30;;;26.70;48.70;;;;;;4989011;28;20398;-73
2021/07/31 12:25:17;;;;;;;2.67;1.30;;;26.60;48.80;;;;;;5008366;28;20078;-73
2021/07/31 12:27:55;;;;;;;7.43;1.30;;;26.60;48.50;;;;;;5002079;28;20026;-73
2021/07/31 12:30:43;;;;;;;2.20;1.00;;;26.50;47.90;;;;;;5001430;28;20069;-78
2021/07/31 12:33:27;;;;;;;2.55;1.20;;;26.40;47.90;;;;;;4997871;28;20485;-76
2021/07/31 12:36:11;;;;;;;4.57;1.27;;;26.40;48.10;;;;;;5007570;28;20040;-72
2021/07/31 12:38:55;;;;;;;1.55;1.00;;;26.40;48.20;;;;;;4997562;28;20032;-72
2021/07/31 12:41:39;;;;;;;1.55;1.10;;;26.40;48.30;;;;;;5003777;28;20153;-72
2021/07/31 12:44:23;;;;;;;2.55;0.93;;;26.40;48.50;;;;;;5008660;28;20100;-72
2021/07/31 12:47:10;;;;;;;1.77;1.08;;;26.50;48.60;;;;;;4999900;28;20033;-71
2021/07/31 12:49:53;;;;;;;4.65;1.27;;;26.40;48.70;;;;;;5006090;28;20065;-72
2021/07/31 12:52:37;;;;;;;2.83;1.20;;;26.40;48.30;;;;;;5000458;28;20123;-72
2021/07/31 12:55:23;;;;;;;3.15;1.10;;;26.40;48.60;;;;;;5006965;28;20402;-72
2021/07/31 12:58:08;;;;;;;2.70;1.20;;;26.40;48.70;;;;;;5001702;28;20511;-71
2021/07/31 13:00:52;;;;;;;2.38;0.93;;;26.30;48.50;;;;;;5008524;28;20147;-72
2021/07/31 13:03:39;;;;;;;1.08;0.90;;;26.30;48.60;;;;;;5002071;28;20582;-72
2021/07/31 13:06:05;;;;;;;4.32;1.20;;;26.30;48.40;;;;;;5000301;28;20065;-72
2021/07/31 13:08:30;;;;;;;6.40;1.58;;;26.30;48.90;;;;;;4994345;28;20365;-72
2021/07/31 13:10:56;;;;;;;1.73;1.10;;;26.30;48.70;;;;;;5013321;28;20022;-71
2021/07/31 13:13:23;;;;;;;4.28;1.38;;;26.40;48.90;;;;;;5000920;28;20046;-71
2021/07/31 13:16:07;;;;;;;2.67;0.93;;;26.50;49.40;;;;;;5012038;28;20040;-71
2021/07/31 13:18:51;;;;;;;3.85;1.13;;;26.60;48.50;;;;;;5011792;28;20386;-71
2021/07/31 13:21:35;;;;;;;3.30;1.40;;;26.60;48.00;;;;;;5011775;28;20533;-71
2021/07/31 13:24:19;;;;;;;3.85;1.60;;;26.60;48.00;;;;;;5014391;28;20388;-71
2021/07/31 13:27:03;;;;;;;2.30;1.40;;;26.70;48.50;;;;;;5011084;28;20128;-70
2021/07/31 13:29:47;;;;;;;3.28;1.30;;;26.70;47.90;;;;;;5014154;28;20036;-71
2021/07/31 13:32:32;;;;;;;2.70;1.20;;;26.80;47.50;;;;;;5010804;28;20057;-71
2021/07/31 13:35:16;;;;;;;;;;;26.90;47.10;;;;;;5009792;28;20037;-71
2021/07/31 13:37:48;;;;;;;3.92;1.13;;;26.90;46.60;;;;;;5015981;28;19991;-71
2021/07/31 13:40:21;;;;;;;3.22;1.20;;;26.90;46.70;;;;;;5033733;28;20029;-71
2021/07/31 13:42:51;;;;;;;2.95;1.27;;;26.90;46.70;;;;;;5005771;28;20038;-71
2021/07/31 13:45:17;;;;;;;1.65;1.10;;;26.90;47.00;;;;;;5011142;28;20034;-70
2021/07/31 13:47:43;;;;;;;6.63;1.48;;;27.00;46.70;;;;;;5006676;28;20018;-68
2021/07/31 13:50:11;;;;;;;2.38;1.48;;;27.10;46.90;;;;;;5010597;28;20387;-70
2021/07/31 13:52:36;;;;;;;2.60;1.35;;;27.10;46.50;;;;;;5013046;28;20115;-69
2021/07/31 13:55:03;;;;;;;1.95;1.25;;;27.00;46.30;;;;;;5009734;28;20049;-72
2021/07/31 13:57:28;;;;;;;3.35;1.30;;;27.00;46.60;;;;;;5005492;28;20121;-72
2021/07/31 13:59:54;;;;;;;6.07;1.30;;;26.90;46.70;;;;;;5000433;28;20509;-71
2021/07/31 14:02:20;;;;;;;1.67;1.10;;;27.00;46.50;;;;;;4999855;28;20059;-71
2021/07/31 14:04:46;;;;;;;3.40;1.60;;;27.00;46.30;;;;;;5002889;28;20065;-71
2021/07/31 14:07:11;;;;;;;4.93;1.55;;;27.00;46.20;;;;;;5004404;28;20470;-71
2021/07/31 14:09:37;;;;;;;4.43;1.10;;;27.00;46.10;;;;;;5010882;28;20037;-71
2021/07/31 14:12:02;;;;;;;3.22;1.30;;;26.90;45.80;;;;;;5005851;28;20088;-71
2021/07/31 14:14:28;;;;;;;3.05;1.20;;;26.90;45.70;;;;;;4994175;28;20053;-71